createdAt,value
2023-01-19T00:01:30.505Z,7.37
2023-01-19T00:03:59.089Z,8.00
2023-01-19T00:06:27.331Z,7.73
2023-01-19T00:08:55.499Z,7.07
2023-01-19T00:11:23.694Z,8.03
2023-01-19T00:13:53.599Z,7.77
2023-01-19T00:16:23.216Z,7.40
2023-01-19T00:18:51.915Z,7.50
2023-01-19T00:21:21.441Z,7.63
2023-01-19T00:23:51.052Z,7.63
2023-01-19T00:26:19.224Z,8.00
2023-01-19T00:28:49.590Z,6.57
2023-01-19T00:31:21.619Z,7.13
2023-01-19T00:33:51.433Z,7.27
2023-01-19T00:36:20.168Z,7.07
2023-01-19T00:38:48.332Z,6.90
2023-01-19T00:41:16.509Z,6.60
2023-01-19T00:43:44.658Z,7.00
2023-01-19T00:46:12.897Z,7.63
2023-01-19T00:48:42.427Z,6.87
2023-01-19T00:51:10.574Z,6.07
2023-01-19T00:53:38.687Z,7.30
2023-01-19T00:56:07.260Z,7.10
2023-01-19T00:58:35.465Z,6.73
2023-01-19T01:01:04.774Z,7.17
2023-01-19T01:03:33.161Z,7.30
2023-01-19T01:06:03.637Z,6.93
2023-01-19T01:08:32.136Z,6.93
2023-01-19T01:11:00.314Z,6.90
2023-01-19T01:13:28.960Z,7.10
2023-01-19T01:15:58.037Z,6.90
2023-01-19T01:18:26.238Z,7.33
2023-01-19T01:20:56.214Z,7.13
2023-01-19T01:23:25.898Z,7.23
2023-01-19T01:25:54.050Z,6.60
2023-01-19T01:28:22.393Z,7.73
2023-01-19T01:30:54.441Z,6.97
2023-01-19T01:33:40.737Z,6.80
2023-01-19T01:36:10.143Z,7.43
2023-01-19T01:38:39.673Z,6.93
2023-01-19T01:41:08.165Z,6.53
2023-01-19T01:43:46.400Z,7.10
2023-01-19T01:46:16.739Z,6.93
2023-01-19T01:48:46.646Z,7.30
2023-01-19T01:51:26.693Z,7.33
2023-01-19T01:54:06.486Z,7.60
2023-01-19T01:56:36.667Z,8.10
2023-01-19T01:59:05.838Z,7.13
2023-01-19T02:01:52.006Z,7.90
2023-01-19T02:04:20.513Z,7.90
2023-01-19T02:07:06.979Z,7.93
2023-01-19T02:09:55.776Z,6.90
2023-01-19T02:12:41.967Z,8.27
2023-01-19T02:15:16.840Z,7.93
2023-01-19T02:17:45.161Z,8.87
2023-01-19T02:20:13.909Z,7.27
2023-01-19T02:22:46.740Z,8.50
2023-01-19T02:25:16.675Z,7.77
2023-01-19T02:27:44.853Z,7.47
2023-01-19T02:30:13.281Z,8.03
2023-01-19T02:32:41.438Z,8.17
2023-01-19T02:35:09.860Z,7.93
2023-01-19T02:37:40.102Z,7.77
2023-01-19T02:40:10.488Z,7.97
2023-01-19T02:42:41.333Z,8.30
2023-01-19T02:45:12.607Z,7.90
2023-01-19T02:47:41.520Z,7.80
2023-01-19T02:50:24.569Z,8.93
2023-01-19T02:52:54.312Z,8.27
2023-01-19T02:55:25.262Z,8.23
2023-01-19T02:57:58.825Z,8.57
2023-01-19T03:00:32.774Z,9.93
2023-01-19T03:03:07.910Z,8.03
2023-01-19T03:05:44.003Z,7.70
2023-01-19T03:08:16.604Z,8.73
2023-01-19T03:10:49.408Z,8.80
2023-01-19T03:13:23.330Z,8.73
2023-01-19T03:15:52.266Z,8.63
2023-01-19T03:18:22.421Z,8.30
2023-01-19T03:20:51.024Z,8.00
2023-01-19T03:23:20.953Z,8.07
2023-01-19T03:25:50.373Z,7.97
2023-01-19T03:28:21.319Z,7.30
2023-01-19T03:30:54.842Z,8.10
2023-01-19T03:33:26.062Z,8.17
2023-01-19T03:35:57.357Z,7.60
2023-01-19T03:38:27.391Z,7.73
2023-01-19T03:40:57.737Z,8.00
2023-01-19T03:43:27.817Z,8.57
2023-01-19T03:45:57.079Z,8.20
2023-01-19T03:48:25.441Z,7.77
2023-01-19T03:50:54.124Z,8.23
2023-01-19T03:53:23.287Z,8.13
2023-01-19T03:55:54.144Z,8.43
2023-01-19T03:58:22.978Z,7.60
2023-01-19T04:00:52.531Z,8.27
2023-01-19T04:03:20.725Z,8.50
2023-01-19T04:05:49.245Z,8.27
2023-01-19T04:08:17.406Z,7.97
2023-01-19T04:10:45.573Z,8.63
2023-01-19T04:13:13.740Z,8.60
2023-01-19T04:15:41.876Z,7.80
2023-01-19T04:18:11.755Z,8.93
2023-01-19T04:20:39.973Z,8.17
2023-01-19T04:23:08.134Z,8.70
2023-01-19T04:25:38.013Z,8.40
2023-01-19T04:28:07.106Z,8.73
2023-01-19T04:30:35.351Z,8.07
2023-01-19T04:33:03.942Z,9.03
2023-01-19T04:35:34.258Z,9.40
2023-01-19T04:38:02.411Z,8.80
2023-01-19T04:40:30.778Z,9.13
2023-01-19T04:42:59.127Z,8.53
2023-01-19T04:45:27.373Z,8.27
2023-01-19T04:47:55.580Z,8.97
2023-01-19T04:50:23.699Z,8.73
2023-01-19T04:52:53.217Z,8.70
2023-01-19T04:55:21.600Z,8.30
2023-01-19T04:57:49.784Z,9.20
2023-01-19T05:00:18.711Z,8.57
2023-01-19T05:02:46.846Z,8.30
2023-01-19T05:05:15.246Z,8.40
2023-01-19T05:07:44.325Z,8.33
2023-01-19T05:10:14.298Z,9.00
2023-01-19T05:12:42.442Z,9.20
2023-01-19T05:15:11.415Z,8.43
2023-01-19T05:17:39.577Z,9.23
2023-01-19T05:20:08.411Z,8.93
2023-01-19T05:22:36.579Z,8.97
2023-01-19T05:25:04.789Z,9.00
2023-01-19T05:27:34.275Z,8.33
2023-01-19T05:30:02.590Z,9.47
2023-01-19T05:32:30.724Z,9.07
2023-01-19T05:34:58.860Z,8.57
2023-01-19T05:37:27.069Z,9.23
2023-01-19T05:39:55.421Z,8.50
2023-01-19T05:42:23.571Z,9.23
2023-01-19T05:44:53.075Z,9.27
2023-01-19T05:47:21.223Z,8.23
2023-01-19T05:49:49.356Z,9.10
2023-01-19T05:52:17.532Z,10.07
2023-01-19T05:54:45.711Z,11.30
2023-01-19T05:57:13.844Z,9.93
2023-01-19T05:59:42.169Z,10.97
2023-01-19T06:02:11.762Z,10.40
2023-01-19T06:04:39.938Z,10.43
2023-01-19T06:07:08.098Z,10.77
2023-01-19T06:09:36.221Z,9.63
2023-01-19T06:12:04.379Z,10.70
2023-01-19T06:14:32.528Z,11.17
2023-01-19T06:17:01.014Z,10.47
2023-01-19T06:19:30.626Z,10.67
2023-01-19T06:21:58.775Z,10.13
2023-01-19T06:24:27.813Z,10.73
2023-01-19T06:26:56.099Z,11.13
2023-01-19T06:29:24.257Z,11.50
2023-01-19T06:31:52.490Z,11.53
2023-01-19T06:34:20.820Z,11.57
2023-01-19T06:36:51.119Z,11.83
2023-01-19T06:39:19.240Z,12.40
2023-01-19T06:41:47.454Z,11.27
2023-01-19T06:44:15.739Z,12.00
2023-01-19T06:46:43.941Z,12.53
2023-01-19T06:49:12.089Z,11.30
2023-01-19T06:51:40.234Z,12.30
2023-01-19T06:54:09.866Z,12.30
2023-01-19T06:56:38.012Z,12.00
2023-01-19T06:59:06.923Z,12.63
2023-01-19T07:01:35.277Z,12.03
2023-01-19T07:04:03.634Z,13.53
2023-01-19T07:06:31.798Z,12.53
2023-01-19T07:09:00.170Z,12.53
2023-01-19T07:11:32.842Z,12.73
2023-01-19T07:14:01.495Z,12.37
2023-01-19T07:16:29.686Z,12.53
2023-01-19T07:18:57.850Z,12.17
2023-01-19T07:21:28.917Z,12.30
2023-01-19T07:23:57.825Z,12.50
2023-01-19T07:26:27.842Z,12.37
2023-01-19T07:28:57.356Z,12.07
2023-01-19T07:31:25.584Z,12.70
2023-01-19T07:33:53.788Z,13.87
2023-01-19T07:36:21.920Z,12.93
2023-01-19T07:38:50.051Z,13.50
2023-01-19T07:41:18.204Z,12.53
2023-01-19T07:43:46.368Z,12.77
2023-01-19T07:46:15.882Z,13.63
2023-01-19T07:48:44.452Z,13.07
2023-01-19T07:51:17.768Z,12.30
2023-01-19T07:53:46.054Z,13.37
2023-01-19T07:56:14.653Z,12.60
2023-01-19T07:58:42.866Z,13.47
2023-01-19T08:01:11.991Z,13.40
2023-01-19T08:03:42.365Z,13.77
2023-01-19T08:06:15.725Z,12.97
2023-01-19T08:08:43.832Z,13.60
2023-01-19T08:11:12.031Z,13.03
2023-01-19T08:13:40.179Z,13.43
2023-01-19T08:16:08.733Z,12.87
2023-01-19T08:18:36.923Z,12.40
2023-01-19T08:21:06.733Z,13.23
2023-01-19T08:23:34.926Z,14.13
2023-01-19T08:26:03.056Z,15.20
2023-01-19T08:28:31.387Z,14.00
2023-01-19T08:31:08.031Z,15.20
2023-01-19T08:33:42.962Z,15.37
2023-01-19T08:36:12.528Z,14.07
2023-01-19T08:38:43.536Z,15.57
2023-01-19T08:41:11.746Z,14.77
2023-01-19T08:43:40.037Z,15.53
2023-01-19T08:46:08.427Z,14.70
2023-01-19T08:48:39.715Z,14.03
2023-01-19T08:51:08.026Z,14.73
2023-01-19T08:53:37.532Z,14.73
2023-01-19T08:56:08.635Z,14.17
2023-01-19T08:58:36.792Z,13.33
2023-01-19T09:01:05.094Z,14.00
2023-01-19T09:03:33.331Z,14.20
2023-01-19T09:06:01.631Z,13.87
2023-01-19T09:08:29.836Z,14.53
2023-01-19T09:10:59.323Z,14.10
2023-01-19T09:13:27.541Z,14.63
2023-01-19T09:15:55.911Z,14.00
2023-01-19T09:18:24.395Z,12.77
2023-01-19T09:20:52.586Z,12.77
2023-01-19T09:23:22.681Z,13.33
2023-01-19T09:25:50.959Z,13.37
2023-01-19T09:28:20.464Z,13.50
2023-01-19T09:30:48.669Z,13.33
2023-01-19T09:33:17.636Z,13.63
2023-01-19T09:35:46.919Z,12.80
2023-01-19T09:38:15.560Z,12.47
2023-01-19T09:40:49.099Z,12.37
2023-01-19T09:43:20.647Z,12.90
2023-01-19T09:45:52.856Z,12.37
2023-01-19T09:48:26.118Z,12.27
2023-01-19T09:50:55.238Z,12.20
2023-01-19T09:53:27.639Z,12.33
2023-01-19T09:55:55.793Z,12.47
2023-01-19T09:58:24.244Z,11.27
2023-01-19T10:00:58.070Z,11.17
2023-01-19T10:03:26.375Z,11.73
2023-01-19T10:05:56.436Z,11.90
2023-01-19T10:08:27.919Z,11.30
2023-01-19T10:10:56.546Z,11.10
2023-01-19T10:13:28.786Z,12.13
2023-01-19T10:16:02.655Z,12.20
2023-01-19T10:18:35.901Z,12.10
2023-01-19T10:21:06.012Z,11.57
2023-01-19T10:23:37.183Z,11.27
2023-01-19T10:26:08.879Z,10.93
2023-01-19T10:28:37.854Z,11.87
2023-01-19T10:31:09.441Z,12.10
2023-01-19T10:33:38.404Z,11.20
2023-01-19T10:36:07.497Z,10.97
2023-01-19T10:38:36.592Z,11.37
2023-01-19T10:41:06.939Z,10.33
2023-01-19T10:43:39.754Z,11.03
2023-01-19T10:46:10.580Z,11.43
2023-01-19T10:48:40.022Z,11.30
2023-01-19T10:51:08.222Z,11.30
2023-01-19T10:53:36.455Z,11.70
2023-01-19T10:56:15.942Z,11.03
2023-01-19T10:58:44.190Z,11.57
2023-01-19T11:01:18.161Z,11.67
2023-01-19T11:03:46.431Z,12.73
2023-01-19T11:06:25.148Z,12.00
2023-01-19T11:08:53.898Z,11.83
2023-01-19T11:11:23.146Z,12.60
2023-01-19T11:14:04.726Z,12.47
2023-01-19T11:16:34.846Z,12.13
2023-01-19T11:19:03.612Z,12.40
2023-01-19T11:21:33.253Z,12.10
2023-01-19T11:24:02.199Z,12.23
2023-01-19T11:26:31.323Z,12.20
2023-01-19T11:29:00.313Z,12.40
2023-01-19T11:31:34.642Z,11.53
2023-01-19T11:34:03.977Z,12.23
2023-01-19T11:36:33.098Z,11.70
2023-01-19T11:39:03.997Z,11.67
2023-01-19T11:41:33.294Z,11.33
2023-01-19T11:44:04.569Z,12.10
2023-01-19T11:46:35.249Z,11.03
2023-01-19T11:49:05.008Z,11.00
2023-01-19T11:51:36.721Z,11.37
2023-01-19T11:54:09.358Z,10.20
2023-01-19T11:56:37.597Z,10.03
2023-01-19T11:59:05.908Z,10.57
2023-01-19T12:01:36.410Z,10.57
2023-01-19T12:04:08.496Z,10.37
2023-01-19T12:06:37.494Z,9.73
2023-01-19T12:09:09.403Z,9.13
2023-01-19T12:11:39.076Z,8.47
2023-01-19T12:14:08.677Z,8.60
2023-01-19T12:16:39.852Z,9.60
2023-01-19T12:19:09.128Z,9.17
2023-01-19T12:21:37.346Z,8.67
2023-01-19T12:24:11.859Z,8.17
2023-01-19T12:26:44.472Z,9.27
2023-01-19T12:29:13.851Z,9.03
2023-01-19T12:31:43.844Z,9.33
2023-01-19T12:34:35.936Z,8.40
2023-01-19T12:37:05.297Z,8.60
2023-01-19T12:39:35.222Z,7.93
2023-01-19T12:42:08.747Z,8.70
2023-01-19T12:44:37.192Z,8.83
2023-01-19T12:47:22.109Z,8.63
2023-01-19T12:49:51.449Z,8.37
2023-01-19T12:52:26.637Z,8.23
2023-01-19T12:54:57.282Z,8.17
2023-01-19T12:57:28.965Z,7.47
2023-01-19T12:59:58.152Z,7.73
2023-01-19T13:02:47.483Z,8.40
2023-01-19T13:05:21.017Z,7.77
2023-01-19T13:08:08.102Z,8.37
2023-01-19T13:10:55.099Z,8.00
2023-01-19T13:13:24.152Z,7.63
2023-01-19T13:15:55.463Z,7.40
2023-01-19T13:18:25.241Z,7.20
2023-01-19T13:20:56.093Z,6.90
2023-01-19T13:23:25.785Z,6.93
2023-01-19T13:25:55.135Z,6.60
2023-01-19T13:28:28.248Z,6.97
2023-01-19T13:30:58.576Z,7.03
2023-01-19T13:33:28.257Z,7.33
2023-01-19T13:35:59.367Z,6.47
2023-01-19T13:38:28.732Z,6.30
2023-01-19T13:40:57.721Z,6.73
2023-01-19T13:43:28.494Z,6.77
2023-01-19T13:45:57.170Z,6.93
2023-01-19T13:48:26.089Z,6.53
2023-01-19T13:50:59.732Z,6.90
2023-01-19T13:53:29.302Z,6.90
2023-01-19T13:56:11.427Z,7.03
2023-01-19T13:58:39.588Z,7.03
2023-01-19T14:01:08.519Z,7.23
2023-01-19T14:03:36.740Z,7.00
2023-01-19T14:06:06.367Z,6.97
2023-01-19T14:08:34.599Z,6.57
2023-01-19T14:11:04.140Z,7.07
2023-01-19T14:13:33.498Z,6.43
2023-01-19T14:16:02.601Z,7.30
2023-01-19T14:18:31.356Z,6.37
2023-01-19T14:21:01.977Z,6.83
2023-01-19T14:23:42.316Z,6.77
2023-01-19T14:26:25.343Z,6.90
2023-01-19T14:28:53.497Z,6.77
2023-01-19T14:31:22.478Z,6.37
2023-01-19T14:33:51.415Z,5.70
2023-01-19T14:36:30.179Z,6.80
2023-01-19T14:39:01.024Z,6.10
2023-01-19T14:41:38.381Z,6.37
2023-01-19T14:44:09.846Z,6.77
2023-01-19T14:46:38.174Z,5.83
2023-01-19T14:49:07.716Z,6.23
2023-01-19T14:51:35.915Z,6.57
2023-01-19T14:54:05.465Z,6.20
2023-01-19T14:56:35.606Z,5.77
2023-01-19T14:59:03.946Z,6.03
2023-01-19T15:01:32.224Z,5.27
2023-01-19T15:04:00.432Z,6.50
2023-01-19T15:06:28.642Z,5.30
2023-01-19T15:08:56.869Z,5.13
2023-01-19T15:11:27.720Z,6.00
2023-01-19T15:13:56.251Z,5.20
2023-01-19T15:16:24.758Z,5.20
2023-01-19T15:18:52.890Z,5.53
2023-01-19T15:21:23.424Z,5.40
2023-01-19T15:23:51.649Z,5.03
2023-01-19T15:26:21.221Z,5.07
2023-01-19T15:28:51.112Z,5.00
2023-01-19T15:31:20.737Z,5.17
2023-01-19T15:33:49.155Z,4.60
2023-01-19T15:36:18.575Z,4.80
2023-01-19T15:38:47.010Z,4.87
2023-01-19T15:41:15.620Z,4.50
2023-01-19T15:43:43.786Z,5.17
2023-01-19T15:46:15.515Z,4.63
2023-01-19T15:48:43.668Z,4.37
2023-01-19T15:51:14.038Z,4.27
2023-01-19T15:53:42.286Z,4.40
2023-01-19T15:56:15.789Z,4.60
2023-01-19T15:58:43.967Z,4.43
2023-01-19T16:01:15.622Z,4.43
2023-01-19T16:03:44.070Z,3.87
2023-01-19T16:06:12.756Z,4.80
2023-01-19T16:08:41.136Z,4.70
2023-01-19T16:11:10.039Z,4.50
2023-01-19T16:13:38.351Z,4.20
2023-01-19T16:16:07.941Z,4.17
2023-01-19T16:18:37.899Z,3.77
2023-01-19T16:21:06.093Z,4.30
2023-01-19T16:23:34.228Z,3.73
2023-01-19T16:26:04.810Z,4.03
2023-01-19T16:28:33.315Z,4.57
2023-01-19T16:31:01.473Z,3.73
2023-01-19T16:33:29.604Z,4.33
2023-01-19T16:35:59.795Z,4.83
2023-01-19T16:38:27.953Z,4.00
2023-01-19T16:40:56.111Z,4.73
2023-01-19T16:43:24.243Z,4.20
2023-01-19T16:45:59.935Z,3.87
2023-01-19T16:48:28.720Z,3.43
2023-01-19T16:51:01.019Z,4.00
2023-01-19T16:53:29.751Z,4.20
2023-01-19T16:55:57.993Z,4.50
2023-01-19T16:58:26.218Z,6.13
2023-01-19T17:00:54.492Z,7.37
2023-01-19T17:03:22.660Z,6.13
2023-01-19T17:05:51.544Z,7.83
2023-01-19T17:08:21.779Z,10.70
2023-01-19T17:10:50.017Z,19.37
2023-01-19T17:13:18.168Z,7.60
2023-01-19T17:15:46.301Z,5.13
2023-01-19T17:18:14.456Z,4.40
2023-01-19T17:20:42.610Z,4.37
2023-01-19T17:23:10.740Z,4.33
2023-01-19T17:25:40.316Z,4.60
2023-01-19T17:28:08.450Z,4.37
2023-01-19T17:30:36.693Z,4.47
2023-01-19T17:33:04.895Z,4.30
2023-01-19T17:35:35.387Z,5.33
2023-01-19T17:38:03.638Z,4.63
2023-01-19T17:40:31.785Z,4.73
2023-01-19T17:43:01.286Z,4.50
2023-01-19T17:45:29.420Z,3.97
2023-01-19T17:47:57.596Z,4.20
2023-01-19T17:50:25.831Z,4.70
2023-01-19T17:52:53.971Z,4.30
2023-01-19T17:55:22.120Z,4.10
2023-01-19T17:57:50.265Z,4.37
2023-01-19T18:00:20.585Z,5.10
2023-01-19T18:02:50.724Z,4.90
2023-01-19T18:05:18.939Z,4.57
2023-01-19T18:07:47.385Z,4.70
2023-01-19T18:10:15.802Z,4.47
2023-01-19T18:12:45.145Z,4.83
2023-01-19T18:15:16.632Z,4.23
2023-01-19T18:17:46.390Z,5.03
2023-01-19T18:20:14.914Z,4.37
2023-01-19T18:22:43.241Z,4.63
2023-01-19T18:25:11.409Z,5.03
2023-01-19T18:27:39.579Z,4.33
2023-01-19T18:30:08.407Z,4.80
2023-01-19T18:32:36.622Z,4.70
2023-01-19T18:35:06.659Z,4.60
2023-01-19T18:37:34.815Z,4.53
2023-01-19T18:40:04.396Z,4.87
2023-01-19T18:42:33.336Z,4.33
2023-01-19T18:45:01.502Z,5.63
2023-01-19T18:47:29.787Z,5.20
2023-01-19T18:49:57.942Z,5.27
2023-01-19T18:52:27.598Z,5.27
2023-01-19T18:54:55.748Z,6.37
2023-01-19T18:57:23.891Z,5.27
2023-01-19T19:00:10.505Z,5.50
2023-01-19T19:02:38.721Z,5.23
2023-01-19T19:05:07.251Z,5.47
2023-01-19T19:07:37.487Z,6.17
2023-01-19T19:10:05.820Z,5.23
2023-01-19T19:12:33.969Z,5.90
2023-01-19T19:15:02.137Z,5.30
2023-01-19T19:17:30.344Z,5.60
2023-01-19T19:19:58.473Z,5.57
2023-01-19T19:22:26.611Z,5.60
2023-01-19T19:24:56.108Z,5.70
2023-01-19T19:27:24.242Z,6.10
2023-01-19T19:29:53.456Z,5.73
2023-01-19T19:32:21.698Z,6.53
2023-01-19T19:34:52.461Z,5.87
2023-01-19T19:37:20.885Z,5.80
2023-01-19T19:39:49.530Z,6.33
2023-01-19T19:42:19.035Z,6.00
2023-01-19T19:44:47.176Z,6.67
2023-01-19T19:47:15.330Z,6.67
2023-01-19T19:49:43.483Z,6.53
2023-01-19T19:52:11.621Z,7.33
2023-01-19T19:54:40.343Z,6.30
2023-01-19T19:57:08.459Z,6.70
2023-01-19T19:59:38.107Z,7.37
2023-01-19T20:02:06.305Z,6.60
2023-01-19T20:04:34.488Z,7.63
2023-01-19T20:07:02.651Z,7.60
2023-01-19T20:09:30.803Z,7.43
2023-01-19T20:11:58.931Z,6.87
2023-01-19T20:14:27.076Z,6.67
2023-01-19T20:16:56.571Z,7.67
2023-01-19T20:19:24.725Z,7.73
2023-01-19T20:21:52.907Z,8.10
2023-01-19T20:24:21.911Z,7.70
2023-01-19T20:26:51.521Z,8.40
2023-01-19T20:29:20.379Z,7.80
2023-01-19T20:31:49.522Z,8.53
2023-01-19T20:34:20.548Z,7.90
2023-01-19T20:36:50.145Z,8.93
2023-01-19T20:39:18.777Z,9.03
2023-01-19T20:41:47.762Z,7.80
2023-01-19T20:44:18.740Z,8.50
2023-01-19T20:46:46.960Z,8.20
2023-01-19T20:49:15.165Z,9.63
2023-01-19T20:51:46.745Z,8.33
2023-01-19T20:54:16.166Z,8.80
2023-01-19T20:56:44.346Z,8.80
2023-01-19T20:59:13.051Z,7.63
2023-01-19T21:01:41.854Z,8.03
2023-01-19T21:04:10.313Z,8.33
2023-01-19T21:06:40.708Z,8.33
2023-01-19T21:09:10.528Z,8.47
2023-01-19T21:11:38.764Z,8.37
2023-01-19T21:14:07.157Z,8.73
2023-01-19T21:16:35.978Z,9.13
2023-01-19T21:19:04.446Z,14.07
2023-01-19T21:21:32.642Z,11.40
2023-01-19T21:24:01.359Z,9.30
2023-01-19T21:26:33.162Z,9.00
2023-01-19T21:29:02.056Z,8.73
2023-01-19T21:31:30.263Z,8.20
2023-01-19T21:33:58.525Z,8.73
2023-01-19T21:36:26.966Z,8.87
2023-01-19T21:39:00.187Z,8.33
2023-01-19T21:41:29.750Z,8.90
2023-01-19T21:43:59.841Z,8.40
2023-01-19T21:46:29.291Z,8.60
2023-01-19T21:48:58.067Z,8.57
2023-01-19T21:51:26.222Z,9.07
2023-01-19T21:53:56.003Z,9.33
2023-01-19T21:56:24.188Z,8.90
2023-01-19T21:58:52.386Z,9.50
2023-01-19T22:01:23.620Z,9.67
2023-01-19T22:03:55.124Z,9.63
2023-01-19T22:06:23.606Z,9.47
2023-01-19T22:08:51.813Z,9.93
2023-01-19T22:11:20.927Z,9.77
2023-01-19T22:13:49.253Z,9.97
2023-01-19T22:16:18.071Z,9.70
2023-01-19T22:18:51.249Z,9.10
2023-01-19T22:21:20.794Z,10.20
2023-01-19T22:23:50.469Z,9.87
2023-01-19T22:26:18.900Z,11.07
2023-01-19T22:28:47.189Z,9.40
2023-01-19T22:31:16.674Z,10.73
2023-01-19T22:33:45.321Z,11.23
2023-01-19T22:36:16.433Z,10.20
2023-01-19T22:38:45.384Z,10.77
2023-01-19T22:41:17.314Z,10.43
2023-01-19T22:43:45.886Z,10.93
2023-01-19T22:46:14.258Z,10.23
2023-01-19T22:48:42.464Z,10.77
2023-01-19T22:51:10.746Z,11.40
2023-01-19T22:53:40.249Z,11.80
2023-01-19T22:56:12.168Z,11.40
2023-01-19T22:58:41.253Z,11.03
2023-01-19T23:01:09.909Z,11.63
2023-01-19T23:03:38.452Z,12.10
2023-01-19T23:06:07.287Z,11.37
2023-01-19T23:08:35.494Z,12.27
2023-01-19T23:11:09.060Z,12.50
2023-01-19T23:13:37.747Z,12.53
2023-01-19T23:16:06.636Z,11.63
2023-01-19T23:18:35.020Z,12.13
2023-01-19T23:21:06.233Z,11.17
2023-01-19T23:23:34.754Z,11.93
2023-01-19T23:26:03.867Z,12.23
2023-01-19T23:28:34.090Z,12.30
2023-01-19T23:31:02.551Z,11.77
2023-01-19T23:33:30.715Z,11.80
2023-01-19T23:35:59.336Z,11.93
2023-01-19T23:38:27.498Z,11.30
2023-01-19T23:40:58.459Z,11.30
2023-01-19T23:43:26.727Z,10.30
2023-01-19T23:45:56.325Z,11.30
2023-01-19T23:48:24.484Z,11.50
2023-01-19T23:50:52.642Z,11.73
2023-01-19T23:53:20.842Z,10.63
2023-01-19T23:55:48.991Z,12.30
2023-01-19T23:58:17.215Z,10.87
